^^
Datos históricos de la estación: Murcia-Puente Tocinos
Diario Informe para Septiembre 27, 2021 Unidades:  Ambas    Ingés   Métrico
Diario Semanal Mensual Anual
  Máxima: Mínima: Promedio:
Temperatura: 90 °F /  32.2 °C 67.5 °F /  19.7 °C 76.6 °F /  24.8 °C
Punto de rocio: 62.8 °F /  17.1 °C 49.8 °F /  9.9 °C 58.1 °F /  14.5 °C
Humedad: 77% 27.7% 56%
Velocidad viento: 9.2mph /  14.8km/h - 3.5mph /  5.7km/h
Racha viento: 17.3mph /  27.8km/h - -
Viento- - Sur
Presión: 30.1 in /  1020.1 hPa 30 in /  1016.9 hPa -
Precipitación: 0 in /  0.0 mm    
 
 
Tabla de datos para Septiembre 27, 2021
Hora Temperatura Punto de rocio Presión Viento Velocidad viento Racha viento Humedad Intensidad lluvia(por hora) Nubes
00:04 73 °F /  22.8 °C 62.8 °F /  17.1 °C 30.1in /  1019.4hPa NE 2.9mph /  4.7km/h 4.7mph /  7.6km/h 70% 0in /  0.0mm
00:09 73 °F /  22.8 °C 62.6 °F /  17 °C 30.1in /  1019.4hPa NE 2.9mph /  4.7km/h 3.6mph /  5.8km/h 70% 0in /  0.0mm
00:14 72.9 °F /  22.7 °C 62.6 °F /  17 °C 30.1in /  1019.4hPa NE 2.9mph /  4.7km/h 4.7mph /  7.6km/h 70.3% 0in /  0.0mm
00:19 72.5 °F /  22.5 °C 62.6 °F /  17 °C 30.1in /  1019.4hPa NE 3mph /  4.8km/h 5.8mph /  9.3km/h 71% 0in /  0.0mm
00:24 72.3 °F /  22.4 °C 62.4 °F /  16.9 °C 30.1in /  1019.4hPa NE 3.1mph /  5km/h 4.6mph /  7.4km/h 71% 0in /  0.0mm
00:29 72.1 °F /  22.3 °C 62.4 °F /  16.9 °C 30.1in /  1019.2hPa NE 2.9mph /  4.6km/h 3.5mph /  5.6km/h 71.6% 0in /  0.0mm
00:34 72.1 °F /  22.3 °C 62.6 °F /  17 °C 30.1in /  1019.2hPa NE 2.4mph /  3.9km/h 2.9mph /  4.7km/h 72% 0in /  0.0mm
00:39 72.1 °F /  22.3 °C 62.6 °F /  17 °C 30.1in /  1019.3hPa NE 2.2mph /  3.6km/h 3.5mph /  5.6km/h 72% 0in /  0.0mm
00:44 72 °F /  22.2 °C 62.4 °F /  16.9 °C 30.1in /  1019.3hPa NNE 1.8mph /  2.9km/h 3.5mph /  5.6km/h 72% 0in /  0.0mm
00:49 72 °F /  22.2 °C 62.6 °F /  17 °C 30.1in /  1019.3hPa NNE 1.9mph /  3km/h 3.5mph /  5.6km/h 72.7% 0in /  0.0mm
00:54 71.8 °F /  22.1 °C 62.8 °F /  17.1 °C 30.1in /  1019.5hPa NNE 2mph /  3.2km/h 3.1mph /  5km/h 73% 0in /  0.0mm
00:59 71.4 °F /  21.9 °C 62.4 °F /  16.9 °C 30.1in /  1019.5hPa NNE 2mph /  3.2km/h 3.6mph /  5.8km/h 73.1% 0in /  0.0mm
01:04 71.4 °F /  21.9 °C 62.8 °F /  17.1 °C 30.1in /  1019.5hPa NNE 2mph /  3.2km/h 2.4mph /  3.9km/h 74% 0in /  0.0mm
01:09 71.4 °F /  21.9 °C 62.6 °F /  17 °C 30.1in /  1019.5hPa NNE 1.9mph /  3.1km/h 3.5mph /  5.6km/h 74% 0in /  0.0mm
01:14 71.2 °F /  21.8 °C 62.6 °F /  17 °C 30.1in /  1019.5hPa NNE 1.8mph /  2.9km/h 4.3mph /  6.9km/h 74% 0in /  0.0mm
01:19 71.2 °F /  21.8 °C 62.2 °F /  16.8 °C 30.1in /  1019.5hPa ENE 2mph /  3.2km/h 4.6mph /  7.4km/h 73.2% 0in /  0.0mm
01:24 71.1 °F /  21.7 °C 61.2 °F /  16.2 °C 30.1in /  1019.7hPa ESE 2.4mph /  3.9km/h 4.6mph /  7.4km/h 71.4% 0in /  0.0mm
01:29 70.7 °F /  21.5 °C 60.1 °F /  15.6 °C 30.1in /  1019.7hPa ESE 2.4mph /  3.9km/h 4.6mph /  7.4km/h 69.5% 0in /  0.0mm
01:34 70.5 °F /  21.4 °C 60.3 °F /  15.7 °C 30.1in /  1019.7hPa ESE 2.4mph /  3.9km/h 2.9mph /  4.7km/h 70% 0in /  0.0mm
01:39 70.5 °F /  21.4 °C 60.3 °F /  15.7 °C 30.1in /  1019.7hPa ESE 2.2mph /  3.6km/h 2.9mph /  4.7km/h 69.8% 0in /  0.0mm
01:44 70.7 °F /  21.5 °C 60.4 °F /  15.8 °C 30.1in /  1019.4hPa ESE 1.8mph /  2.9km/h 2.9mph /  4.7km/h 70% 0in /  0.0mm
01:49 70.7 °F /  21.5 °C 60.4 °F /  15.8 °C 30.1in /  1019.4hPa ESE 1.7mph /  2.7km/h 2.3mph /  3.7km/h 70% 0in /  0.0mm
01:54 70.7 °F /  21.5 °C 60.4 °F /  15.8 °C 30.1in /  1019.4hPa ESE 1.4mph /  2.3km/h   70% 0in /  0.0mm
01:59 70.5 °F /  21.4 °C 60.3 °F /  15.7 °C 30.1in /  1019.4hPa ESE 0.9mph /  1.5km/h   70% 0in /  0.0mm
02:04 70.5 °F /  21.4 °C 60.4 °F /  15.8 °C 30.1in /  1019.4hPa Calm   2.9mph /  4.7km/h 70.5% 0in /  0.0mm
02:09 70.5 °F /  21.4 °C 60.6 °F /  15.9 °C 30.1in /  1019.5hPa ESE 0.5mph /  0.8km/h 2.4mph /  3.9km/h 71% 0in /  0.0mm
02:14 70.3 °F /  21.3 °C 60.6 °F /  15.9 °C 30.1in /  1019.5hPa ESE 1.4mph /  2.3km/h 2.9mph /  4.7km/h 71% 0in /  0.0mm
02:19 70.2 °F /  21.2 °C 59.9 °F /  15.5 °C 30.1in /  1019.5hPa ESE 1.4mph /  2.3km/h 2.4mph /  3.9km/h 70.2% 0in /  0.0mm
02:24 70 °F /  21.1 °C 60.1 °F /  15.6 °C 30.1in /  1019.5hPa ESE 1.4mph /  2.3km/h 1.4mph /  2.3km/h 70.9% 0in /  0.0mm
02:29 69.8 °F /  21 °C 60.3 °F /  15.7 °C 30.1in /  1019.4hPa ESE 1.4mph /  2.3km/h 4.6mph /  7.4km/h 71.8% 0in /  0.0mm
02:34 70 °F /  21.1 °C 61 °F /  16.1 °C 30.1in /  1019.4hPa ESE 1.4mph /  2.3km/h 3.6mph /  5.8km/h 73% 0in /  0.0mm
02:39 70 °F /  21.1 °C 61.2 °F /  16.2 °C 30.1in /  1019.4hPa ESE 1.6mph /  2.6km/h 2.4mph /  3.9km/h 73.6% 0in /  0.0mm
02:44 70 °F /  21.1 °C 61.3 °F /  16.3 °C 30.1in /  1019.4hPa ESE 2mph /  3.2km/h 2.9mph /  4.7km/h 74% 0in /  0.0mm
02:49 70 °F /  21.1 °C 61.2 °F /  16.2 °C 30.1in /  1019.4hPa ESE 1.8mph /  2.9km/h 3.5mph /  5.6km/h 73.8% 0in /  0.0mm
02:54 70 °F /  21.1 °C 61 °F /  16.1 °C 30.1in /  1019.4hPa SE 1.4mph /  2.3km/h 6.4mph /  10.3km/h 73% 0in /  0.0mm
02:59 69.8 °F /  21 °C 60.4 °F /  15.8 °C 30.1in /  1019.4hPa Sur 1.9mph /  3.1km/h 6.9mph /  11.1km/h 72% 0in /  0.0mm
03:04 69.6 °F /  20.9 °C 59.7 °F /  15.4 °C 30.1in /  1019.4hPa Sur 2.9mph /  4.7km/h 5.8mph /  9.3km/h 71% 0in /  0.0mm
03:09 69.6 °F /  20.9 °C 59.5 °F /  15.3 °C 30.1in /  1019.4hPa SSO 3.1mph /  5km/h 4.7mph /  7.6km/h 70.3% 0in /  0.0mm
03:14 70 °F /  21.1 °C 59.5 °F /  15.3 °C 30.1in /  1019.3hPa SO 3.6mph /  5.8km/h 4.7mph /  7.6km/h 69.5% 0in /  0.0mm
03:19 70.2 °F /  21.2 °C 59.4 °F /  15.2 °C 30.1in /  1019.3hPa OSO 3.4mph /  5.4km/h 4.7mph /  7.6km/h 69% 0in /  0.0mm
03:24 70.2 °F /  21.2 °C 59.4 °F /  15.2 °C 30.1in /  1019.3hPa SO 2.9mph /  4.7km/h 4.6mph /  7.4km/h 68.8% 0in /  0.0mm
03:29 70.2 °F /  21.2 °C 59.2 °F /  15.1 °C 30.1in /  1019.2hPa SO 2.7mph /  4.4km/h 4.6mph /  7.4km/h 68% 0in /  0.0mm
03:34 70.3 °F /  21.3 °C 59.4 °F /  15.2 °C 30.1in /  1019.2hPa SO 2.4mph /  3.9km/h 4.6mph /  7.4km/h 68% 0in /  0.0mm
03:39 70.3 °F /  21.3 °C 59.4 °F /  15.2 °C 30.1in /  1019.2hPa SO 2.4mph /  3.9km/h 3.6mph /  5.8km/h 68% 0in /  0.0mm
03:44 70.3 °F /  21.3 °C 59.4 °F /  15.2 °C 30.1in /  1019.2hPa SO 2.4mph /  3.9km/h 2.3mph /  3.7km/h 68% 0in /  0.0mm
03:49 70.2 °F /  21.2 °C 59.2 °F /  15.1 °C 30.1in /  1019.2hPa SO 1.6mph /  2.6km/h 1.2mph /  1.9km/h 68% 0in /  0.0mm
03:54 70.2 °F /  21.2 °C 59.4 °F /  15.2 °C 30.1in /  1019.2hPa Calm   4.7mph /  7.6km/h 68.7% 0in /  0.0mm
03:59 70 °F /  21.1 °C 59.5 °F /  15.3 °C 30.1in /  1019.1hPa SE 1.1mph /  1.7km/h 6.2mph /  10km/h 69.5% 0in /  0.0mm
04:04 69.4 °F /  20.8 °C 59.7 °F /  15.4 °C 30.1in /  1019.1hPa SE 2.9mph /  4.7km/h 4.6mph /  7.4km/h 70.8% 0in /  0.0mm
04:09 69.3 °F /  20.7 °C 59.5 °F /  15.3 °C 30.1in /  1019.1hPa SE 2.9mph /  4.7km/h 4.6mph /  7.4km/h 71.2% 0in /  0.0mm
04:14 69.1 °F /  20.6 °C 59.4 °F /  15.2 °C 30.1in /  1018.9hPa SSE 2.9mph /  4.7km/h 4.7mph /  7.6km/h 71.1% 0in /  0.0mm
04:19 69.1 °F /  20.6 °C 59.2 °F /  15.1 °C 30.1in /  1018.9hPa Sur 3mph /  4.8km/h 5.8mph /  9.3km/h 71.1% 0in /  0.0mm
04:24 68.9 °F /  20.5 °C 59.2 °F /  15.1 °C 30.1in /  1019.0hPa SSE 3.1mph /  5km/h 4.6mph /  7.4km/h 71% 0in /  0.0mm
04:29 68.9 °F /  20.5 °C 59.2 °F /  15.1 °C 30.1in /  1019.0hPa Sur 2.9mph /  4.6km/h 3.5mph /  5.6km/h 71% 0in /  0.0mm
04:34 68.9 °F /  20.5 °C 59.2 °F /  15.1 °C 30.1in /  1019.0hPa SSO 2.4mph /  3.9km/h 3.6mph /  5.8km/h 71% 0in /  0.0mm
04:39 69.1 °F /  20.6 °C 59.4 °F /  15.2 °C 30.1in /  1019.0hPa SSO 2.4mph /  3.9km/h 4.6mph /  7.4km/h 71% 0in /  0.0mm
04:44 69.3 °F /  20.7 °C 59.4 °F /  15.2 °C 30.1in /  1019.0hPa SSO 2.4mph /  3.9km/h 4.6mph /  7.4km/h 71% 0in /  0.0mm
04:49 69.3 °F /  20.7 °C 59.5 °F /  15.3 °C 30.1in /  1019.0hPa SSO 2.5mph /  4.1km/h 4.6mph /  7.4km/h 71% 0in /  0.0mm
04:54 69.3 °F /  20.7 °C 59.7 °F /  15.4 °C 30.1in /  1019.0hPa SO 2.9mph /  4.7km/h 4.6mph /  7.4km/h 71.9% 0in /  0.0mm
04:59 69.3 °F /  20.7 °C 59.7 °F /  15.4 °C 30.1in /  1018.9hPa Sur 2.9mph /  4.7km/h 5.2mph /  8.4km/h 72% 0in /  0.0mm
05:04 69.3 °F /  20.7 °C 59.9 °F /  15.5 °C 30.1in /  1018.9hPa Sur 2.9mph /  4.7km/h 5.9mph /  9.5km/h 72.2% 0in /  0.0mm
05:09 69.1 °F /  20.6 °C 60.1 °F /  15.6 °C 30.1in /  1019.0hPa Sur 3.3mph /  5.3km/h 5.8mph /  9.3km/h 73% 0in /  0.0mm
05:14 68.9 °F /  20.5 °C 60.1 °F /  15.6 °C 30.1in /  1019.0hPa Sur 4mph /  6.4km/h 4.7mph /  7.6km/h 73.4% 0in /  0.0mm
05:19 68.7 °F /  20.4 °C 60.1 °F /  15.6 °C 30.1in /  1019.0hPa Sur 3.9mph /  6.2km/h 5.8mph /  9.3km/h 74% 0in /  0.0mm
05:24 68.5 °F /  20.3 °C 60.4 °F /  15.8 °C 30.1in /  1019.0hPa SSO 3.6mph /  5.8km/h 4.7mph /  7.6km/h 75% 0in /  0.0mm
05:29 68.5 °F /  20.3 °C 60.3 °F /  15.7 °C 30.1in /  1018.9hPa SSO 3.6mph /  5.8km/h 4.7mph /  7.6km/h 75% 0in /  0.0mm
05:34 68.4 °F /  20.2 °C 60.4 °F /  15.8 °C 30.1in /  1018.9hPa SO 3.6mph /  5.8km/h 5.9mph /  9.5km/h 75.7% 0in /  0.0mm
05:39 68.4 °F /  20.2 °C 60.4 °F /  15.8 °C 30.1in /  1019.0hPa SO 3.6mph /  5.8km/h 6.9mph /  11.1km/h 76% 0in /  0.0mm
05:44 68.4 °F /  20.2 °C 60.6 °F /  15.9 °C 30.1in /  1019.0hPa SO 3.6mph /  5.8km/h 5.9mph /  9.5km/h 76.4% 0in /  0.0mm
05:49 68.4 °F /  20.2 °C 61 °F /  16.1 °C 30.1in /  1019.0hPa SO 3.6mph /  5.8km/h 5.8mph /  9.3km/h 77% 0in /  0.0mm
05:54 68.4 °F /  20.2 °C 60.6 °F /  15.9 °C 30.1in /  1019.1hPa SSO 3.6mph /  5.8km/h 5.8mph /  9.3km/h 76.4% 0in /  0.0mm
05:59 68.4 °F /  20.2 °C 60.4 °F /  15.8 °C 30.1in /  1019.1hPa SO 3.4mph /  5.4km/h 5.9mph /  9.5km/h 76% 0in /  0.0mm
06:04 68.4 °F /  20.2 °C 60.3 °F /  15.7 °C 30.1in /  1019.1hPa SSO 2.9mph /  4.7km/h 5.2mph /  8.4km/h 75.8% 0in /  0.0mm
06:09 68.2 °F /  20.1 °C 60.1 °F /  15.6 °C 30.1in /  1019.1hPa SSE 3.1mph /  5km/h 6.9mph /  11.1km/h 75% 0in /  0.0mm
06:14 68.2 °F /  20.1 °C 59.9 °F /  15.5 °C 30.1in /  1019.0hPa SSE 3.6mph /  5.8km/h 7.4mph /  11.9km/h 75% 0in /  0.0mm
06:15 68 °F /  20 °C 59.7 °F /  15.4 °C 30.1in /  1019.0hPa Sur 3.6mph /  5.8km/h 5.8mph /  9.3km/h 75% 0in /  0.0mm
06:24 67.8 °F /  19.9 °C 59.7 °F /  15.4 °C 30.1in /  1019.0hPa SSO 4.7mph /  7.6km/h 5.8mph /  9.3km/h 75.3% 0in /  0.0mm
06:29 67.8 °F /  19.9 °C 60.1 °F /  15.6 °C 30.1in /  1019.0hPa SSO 4.5mph /  7.2km/h 5.9mph /  9.5km/h 76% 0in /  0.0mm
06:34 67.8 °F /  19.9 °C 60.1 °F /  15.6 °C 30.1in /  1019.0hPa SSO 4mph /  6.4km/h 6.9mph /  11.1km/h 76% 0in /  0.0mm
06:39 67.8 °F /  19.9 °C 60.1 °F /  15.6 °C 30.1in /  1019.1hPa SO 3.9mph /  6.2km/h 5.8mph /  9.3km/h 76% 0in /  0.0mm
06:44 68 °F /  20 °C 60.3 °F /  15.7 °C 30.1in /  1019.1hPa SSO 3.6mph /  5.8km/h 7.4mph /  11.9km/h 76% 0in /  0.0mm
06:49 68 °F /  20 °C 60.1 °F /  15.6 °C 30.1in /  1019.1hPa SSO 3.6mph /  5.8km/h 6.9mph /  11.1km/h 76% 0in /  0.0mm
06:54 67.8 °F /  19.9 °C 60.1 °F /  15.6 °C 30.1in /  1019.2hPa Sur 3.6mph /  5.8km/h 6.2mph /  10km/h 76% 0in /  0.0mm
06:59 67.8 °F /  19.9 °C 60.1 °F /  15.6 °C 30.1in /  1019.2hPa SSO 3.7mph /  6km/h 5.9mph /  9.5km/h 76% 0in /  0.0mm
07:04 67.6 °F /  19.8 °C 59.9 °F /  15.5 °C 30.1in /  1019.2hPa SSO 4mph /  6.4km/h 5.8mph /  9.3km/h 76% 0in /  0.0mm
07:09 67.6 °F /  19.8 °C 59.7 °F /  15.4 °C 30.1in /  1019.2hPa SSO 3.9mph /  6.2km/h 6.9mph /  11.1km/h 76% 0in /  0.0mm
07:14 67.6 °F /  19.8 °C 59.7 °F /  15.4 °C 30.1in /  1019.2hPa SO 3.6mph /  5.8km/h 6.9mph /  11.1km/h 76% 0in /  0.0mm
07:19 67.6 °F /  19.8 °C 59.7 °F /  15.4 °C 30.1in /  1019.2hPa SO 3.6mph /  5.8km/h 5.2mph /  8.4km/h 76% 0in /  0.0mm
07:24 67.6 °F /  19.8 °C 59.7 °F /  15.4 °C 30.1in /  1019.3hPa SO 3.6mph /  5.8km/h 6.2mph /  10km/h 76% 0in /  0.0mm
07:29 67.6 °F /  19.8 °C 59.7 °F /  15.4 °C 30.1in /  1019.3hPa SO 3.6mph /  5.8km/h 5.9mph /  9.5km/h 76% 0in /  0.0mm
07:34 67.5 °F /  19.7 °C 59.5 °F /  15.3 °C 30.1in /  1019.3hPa SO 3.6mph /  5.8km/h 4.7mph /  7.6km/h 76% 0in /  0.0mm
07:39 67.5 °F /  19.7 °C 59.5 °F /  15.3 °C 30.1in /  1019.3hPa SO 3.4mph /  5.4km/h 5.8mph /  9.3km/h 76% 0in /  0.0mm
07:44 67.5 °F /  19.7 °C 59.5 °F /  15.3 °C 30.1in /  1019.2hPa OSO 2.9mph /  4.7km/h 4.6mph /  7.4km/h 76% 0in /  0.0mm
07:49 67.5 °F /  19.7 °C 59.5 °F /  15.3 °C 30.1in /  1019.2hPa SO 2.7mph /  4.4km/h 4.6mph /  7.4km/h 76% 0in /  0.0mm
07:54 67.5 °F /  19.7 °C 59.5 °F /  15.3 °C 30.1in /  1019.3hPa SO 2.4mph /  3.9km/h 4.6mph /  7.4km/h 76% 0in /  0.0mm
07:59 67.5 °F /  19.7 °C 59.5 °F /  15.3 °C 30.1in /  1019.3hPa Sur 2.6mph /  4.2km/h 4.6mph /  7.4km/h 76% 0in /  0.0mm
08:04 67.5 °F /  19.7 °C 59.5 °F /  15.3 °C 30.1in /  1019.3hPa Sur 2.9mph /  4.7km/h 4.7mph /  7.6km/h 76% 0in /  0.0mm
08:09 67.5 °F /  19.7 °C 59.5 °F /  15.3 °C 30.1in /  1019.4hPa SSO 3mph /  4.8km/h 5.2mph /  8.4km/h 76% 0in /  0.0mm
08:14 67.5 °F /  19.7 °C 59.5 °F /  15.3 °C 30.1in /  1019.4hPa SSO 3.1mph /  5km/h 5.2mph /  8.4km/h 76% 0in /  0.0mm
08:19 67.5 °F /  19.7 °C 59.5 °F /  15.3 °C 30.1in /  1019.4hPa SSO 3.3mph /  5.3km/h 6.2mph /  10km/h 76% 0in /  0.0mm
08:24 67.5 °F /  19.7 °C 59.5 °F /  15.3 °C 30.1in /  1019.5hPa SO 3.6mph /  5.8km/h 6.9mph /  11.1km/h 76% 0in /  0.0mm
08:29 67.6 °F /  19.8 °C 59.7 °F /  15.4 °C 30.1in /  1019.5hPa SO 3.9mph /  6.2km/h 6.9mph /  11.1km/h 75.9% 0in /  0.0mm
08:34 67.6 °F /  19.8 °C 59.4 °F /  15.2 °C 30.1in /  1019.5hPa OSO 4.3mph /  6.9km/h 5.9mph /  9.5km/h 75% 0in /  0.0mm
08:39 67.6 °F /  19.8 °C 59.5 °F /  15.3 °C 30.1in /  1019.7hPa SO 3.9mph /  6.3km/h 5.2mph /  8.4km/h 75.2% 0in /  0.0mm
08:44 67.6 °F /  19.8 °C 59.4 °F /  15.2 °C 30.1in /  1019.7hPa SO 3.1mph /  5km/h 5.2mph /  8.4km/h 75.1% 0in /  0.0mm
08:49 67.6 °F /  19.8 °C 59.5 °F /  15.3 °C 30.1in /  1019.7hPa OSO 3mph /  4.9km/h 5.2mph /  8.4km/h 75% 0in /  0.0mm
08:54 67.8 °F /  19.9 °C 59.5 °F /  15.3 °C 30.1in /  1019.8hPa OSO 2.9mph /  4.7km/h 5.9mph /  9.5km/h 75% 0in /  0.0mm
08:59 67.6 °F /  19.8 °C 59.5 °F /  15.3 °C 30.1in /  1019.8hPa OSO 3.3mph /  5.3km/h 5.9mph /  9.5km/h 75% 0in /  0.0mm
09:04 67.8 °F /  19.9 °C 59.5 °F /  15.3 °C 30.1in /  1019.8hPa SO 4mph /  6.4km/h 4.6mph /  7.4km/h 75% 0in /  0.0mm
09:09 68.2 °F /  20.1 °C 59.7 °F /  15.4 °C 30.1in /  1019.8hPa SSO 3.7mph /  5.9km/h 5.2mph /  8.4km/h 74.6% 0in /  0.0mm
09:14 68.4 °F /  20.2 °C 59.5 °F /  15.3 °C 30.1in /  1019.8hPa OSO 2.9mph /  4.7km/h 5.9mph /  9.5km/h 73.3% 0in /  0.0mm
09:19 68.5 °F /  20.3 °C 59.5 °F /  15.3 °C 30.1in /  1019.8hPa SO 3mph /  4.8km/h 5.8mph /  9.3km/h 73% 0in /  0.0mm
09:24 68.9 °F /  20.5 °C 59.5 °F /  15.3 °C 30.1in /  1019.8hPa SO 3.1mph /  5km/h 6.2mph /  10km/h 72% 0in /  0.0mm
09:29 69.4 °F /  20.8 °C 59.9 °F /  15.5 °C 30.1in /  1019.8hPa SSO 3.3mph /  5.3km/h 5.8mph /  9.3km/h 72% 0in /  0.0mm
09:34 69.8 °F /  21 °C 60.1 °F /  15.6 °C 30.1in /  1019.8hPa SSO 3.6mph /  5.8km/h 4.6mph /  7.4km/h 71.3% 0in /  0.0mm
09:39 70.2 °F /  21.2 °C 60.3 °F /  15.7 °C 30.1in /  1019.9hPa SSO 3.4mph /  5.4km/h 4.7mph /  7.6km/h 70.7% 0in /  0.0mm
09:44 70.3 °F /  21.3 °C 59.9 °F /  15.5 °C 30.1in /  1019.9hPa OSO 2.9mph /  4.7km/h 7.4mph /  11.9km/h 69.5% 0in /  0.0mm
09:49 70.5 °F /  21.4 °C 59.2 °F /  15.1 °C 30.1in /  1019.9hPa Oeste 3.3mph /  5.3km/h 6.9mph /  11.1km/h 67.5% 0in /  0.0mm
09:54 70.5 °F /  21.4 °C 59 °F /  15 °C 30.1in /  1020.0hPa Oeste 4mph /  6.4km/h 5.8mph /  9.3km/h 67% 0in /  0.0mm
09:59 70.7 °F /  21.5 °C 59.2 °F /  15.1 °C 30.1in /  1020.0hPa Oeste 4mph /  6.4km/h 6.9mph /  11.1km/h 67% 0in /  0.0mm
10:04 70.7 °F /  21.5 °C 59.2 °F /  15.1 °C 30.1in /  1020.0hPa OSO 4mph /  6.4km/h 5.8mph /  9.3km/h 67.1% 0in /  0.0mm
10:09 70.9 °F /  21.6 °C 59.5 °F /  15.3 °C 30.1in /  1020.0hPa Oeste 3.9mph /  6.2km/h 5.4mph /  8.7km/h 67.5% 0in /  0.0mm
10:14 71.1 °F /  21.7 °C 59.5 °F /  15.3 °C 30.1in /  1019.9hPa OSO 3.6mph /  5.8km/h 6.2mph /  10km/h 67.1% 0in /  0.0mm
10:19 71.4 °F /  21.9 °C 59.9 °F /  15.5 °C 30.1in /  1019.9hPa SO 3.4mph /  5.5km/h 5.8mph /  9.3km/h 67% 0in /  0.0mm
10:24 72 °F /  22.2 °C 60.1 °F /  15.6 °C 30.1in /  1020.0hPa NO 3.1mph /  5km/h 5.2mph /  8.4km/h 66% 0in /  0.0mm
10:29 72.7 °F /  22.6 °C 59.9 °F /  15.5 °C 30.1in /  1020.0hPa SO 2.7mph /  4.4km/h 5.9mph /  9.5km/h 64.5% 0in /  0.0mm
10:34 73 °F /  22.8 °C 59.7 °F /  15.4 °C 30.1in /  1020.0hPa SSO 2mph /  3.2km/h 5.9mph /  9.5km/h 63% 0in /  0.0mm
10:39 73 °F /  22.8 °C 59.7 °F /  15.4 °C 30.1in /  1020.0hPa OSO 2.5mph /  4km/h 7.6mph /  12.2km/h 63% 0in /  0.0mm
10:44 73.2 °F /  22.9 °C 59.5 °F /  15.3 °C 30.1in /  1020.0hPa OSO 3.6mph /  5.8km/h 8.1mph /  13km/h 62.5% 0in /  0.0mm
10:49 73.4 °F /  23 °C 59.5 °F /  15.3 °C 30.1in /  1020.0hPa OSO 3.9mph /  6.2km/h 7.4mph /  11.9km/h 61.9% 0in /  0.0mm
10:54 73.6 °F /  23.1 °C 59.7 °F /  15.4 °C 30.1in /  1020.0hPa Oeste 4.3mph /  6.9km/h 6.9mph /  11.1km/h 62% 0in /  0.0mm
10:59 73.8 °F /  23.2 °C 59.5 °F /  15.3 °C 30.1in /  1020.0hPa OSO 4.3mph /  6.9km/h 7.4mph /  11.9km/h 61.2% 0in /  0.0mm
11:04 73.8 °F /  23.2 °C 59.4 °F /  15.2 °C 30.1in /  1020.0hPa Oeste 4.3mph /  6.9km/h 5.2mph /  8.4km/h 60.5% 0in /  0.0mm
11:09 73.9 °F /  23.3 °C 59.2 °F /  15.1 °C 30.1in /  1020.1hPa OSO 3.8mph /  6.1km/h 5.2mph /  8.4km/h 60.1% 0in /  0.0mm
11:14 74.5 °F /  23.6 °C 59.4 °F /  15.2 °C 30.1in /  1020.1hPa SSO 2.9mph /  4.7km/h 5.2mph /  8.4km/h 59.4% 0in /  0.0mm
11:19 74.8 °F /  23.8 °C 59.2 °F /  15.1 °C 30.1in /  1020.1hPa SSE 3mph /  4.8km/h 7.4mph /  11.9km/h 58.3% 0in /  0.0mm
11:24 75.4 °F /  24.1 °C 59 °F /  15 °C 30.1in /  1020.1hPa Sur 3.1mph /  5km/h 7.4mph /  11.9km/h 57% 0in /  0.0mm
11:29 75.6 °F /  24.2 °C 59.4 °F /  15.2 °C 30.1in /  1020.1hPa SSO 3.5mph /  5.6km/h 6.9mph /  11.1km/h 57% 0in /  0.0mm
11:34 75.7 °F /  24.3 °C 59.2 °F /  15.1 °C 30.1in /  1020.1hPa Sur 4.3mph /  6.9km/h 8.1mph /  13km/h 56.5% 0in /  0.0mm
11:39 75.9 °F /  24.4 °C 59.2 °F /  15.1 °C 30.1in /  1020.1hPa Sur 4.2mph /  6.8km/h 6.9mph /  11.1km/h 56.2% 0in /  0.0mm
11:44 76.5 °F /  24.7 °C 59.5 °F /  15.3 °C 30.1in /  1020.0hPa Sur 4mph /  6.4km/h 6.9mph /  11.1km/h 55.9% 0in /  0.0mm
11:49 76.6 °F /  24.8 °C 59.7 °F /  15.4 °C 30.1in /  1020.0hPa SSO 4mph /  6.4km/h 6.9mph /  11.1km/h 55.7% 0in /  0.0mm
11:54 77.2 °F /  25.1 °C 59.7 °F /  15.4 °C 30.1in /  1020.0hPa Oeste 4mph /  6.4km/h 5.8mph /  9.3km/h 54.9% 0in /  0.0mm
11:59 77.7 °F /  25.4 °C 59.5 °F /  15.3 °C 30.1in /  1020.0hPa SO 3.6mph /  5.8km/h 6.9mph /  11.1km/h 53.6% 0in /  0.0mm
12:04 77.9 °F /  25.5 °C 59.4 °F /  15.2 °C 30.1in /  1020.0hPa OSO 2.9mph /  4.7km/h 6.9mph /  11.1km/h 53% 0in /  0.0mm
12:09 78.3 °F /  25.7 °C 59.7 °F /  15.4 °C 30.1in /  1020.0hPa Sur 3mph /  4.8km/h 4.6mph /  7.4km/h 53.1% 0in /  0.0mm
12:14 78.6 °F /  25.9 °C 59 °F /  15 °C 30.1in /  1019.9hPa OSO 3.1mph /  5km/h 6.9mph /  11.1km/h 51.1% 0in /  0.0mm
12:19 78.6 °F /  25.9 °C 58.6 °F /  14.8 °C 30.1in /  1019.9hPa ONO 3.2mph /  5.2km/h 5.8mph /  9.3km/h 50.3% 0in /  0.0mm
12:24 78.8 °F /  26 °C 58.8 °F /  14.9 °C 30.1in /  1019.9hPa OSO 3.6mph /  5.8km/h 5.9mph /  9.5km/h 50.5% 0in /  0.0mm
12:29 79.2 °F /  26.2 °C 58.8 °F /  14.9 °C 30.1in /  1019.8hPa SO 3.4mph /  5.5km/h 5.4mph /  8.7km/h 49.9% 0in /  0.0mm
12:34 79.7 °F /  26.5 °C 59 °F /  15 °C 30.1in /  1019.8hPa SO 3.1mph /  5km/h 5.8mph /  9.3km/h 49.1% 0in /  0.0mm
12:39 80.2 °F /  26.8 °C 59.2 °F /  15.1 °C 30.1in /  1019.8hPa Sur 2.9mph /  4.6km/h 5.2mph /  8.4km/h 48.9% 0in /  0.0mm
12:44 80.6 °F /  27 °C 59.2 °F /  15.1 °C 30.1in /  1019.7hPa ONO 2.4mph /  3.9km/h 6.4mph /  10.3km/h 48% 0in /  0.0mm
12:49 80.8 °F /  27.1 °C 59.4 °F /  15.2 °C 30.1in /  1019.7hPa Oeste 2.5mph /  4.1km/h 6.9mph /  11.1km/h 48% 0in /  0.0mm
12:54 81 °F /  27.2 °C 59.5 °F /  15.3 °C 30.1in /  1019.7hPa NO 2.9mph /  4.7km/h 4.6mph /  7.4km/h 48.1% 0in /  0.0mm
12:59 81.3 °F /  27.4 °C 59.7 °F /  15.4 °C 30.1in /  1019.6hPa Oeste 2.9mph /  4.7km/h 6.9mph /  11.1km/h 47.8% 0in /  0.0mm
13:04 81.7 °F /  27.6 °C 59.9 °F /  15.5 °C 30.1in /  1019.6hPa NNO 2.9mph /  4.7km/h 5.2mph /  8.4km/h 47.7% 0in /  0.0mm
13:09 82 °F /  27.8 °C 59.9 °F /  15.5 °C 30.1in /  1019.6hPa ONO 2.7mph /  4.4km/h 5.8mph /  9.3km/h 47% 0in /  0.0mm
13:14 82.2 °F /  27.9 °C 59.7 °F /  15.4 °C 30.1in /  1019.6hPa SO 2.4mph /  3.9km/h 6.2mph /  10km/h 46.6% 0in /  0.0mm
13:19 82.4 °F /  28 °C 59.9 °F /  15.5 °C 30.1in /  1019.6hPa Oeste 2.8mph /  4.5km/h 6.2mph /  10km/h 46.7% 0in /  0.0mm
13:24 82.8 °F /  28.2 °C 59.7 °F /  15.4 °C 30.1in /  1019.6hPa Oeste 3.6mph /  5.8km/h 5.9mph /  9.5km/h 45.9% 0in /  0.0mm
13:29 82.9 °F /  28.3 °C 59.5 °F /  15.3 °C 30.1in /  1019.4hPa OSO 3.4mph /  5.5km/h 4.7mph /  7.6km/h 45.3% 0in /  0.0mm
13:34 82.9 °F /  28.3 °C 59.2 °F /  15.1 °C 30.1in /  1019.4hPa NO 3.1mph /  5km/h 4.6mph /  7.4km/h 44.5% 0in /  0.0mm
13:39 83.5 °F /  28.6 °C 59.5 °F /  15.3 °C 30.1in /  1019.4hPa North 2.7mph /  4.3km/h 6.2mph /  10km/h 44.5% 0in /  0.0mm
13:44 84 °F /  28.9 °C 59.4 °F /  15.2 °C 30.1in /  1019.2hPa ESE 1.8mph /  2.9km/h 5.8mph /  9.3km/h 43.3% 0in /  0.0mm
13:49 84.6 °F /  29.2 °C 59.4 °F /  15.2 °C 30.1in /  1019.2hPa NE 2.2mph /  3.6km/h 5.4mph /  8.7km/h 42.6% 0in /  0.0mm
13:54 84.6 °F /  29.2 °C 59.2 °F /  15.1 °C 30.1in /  1019.2hPa ESE 3.1mph /  5km/h 6.9mph /  11.1km/h 42.3% 0in /  0.0mm
13:59 84.6 °F /  29.2 °C 59 °F /  15 °C 30.1in /  1018.9hPa SE 3.3mph /  5.3km/h 4.7mph /  7.6km/h 42.2% 0in /  0.0mm
14:04 84.7 °F /  29.3 °C 58.5 °F /  14.7 °C 30.1in /  1018.9hPa ESE 3.6mph /  5.8km/h 5.2mph /  8.4km/h 41% 0in /  0.0mm
14:09 85.3 °F /  29.6 °C 59 °F /  15 °C 30.1in /  1018.9hPa ESE 3mph /  4.9km/h 4.6mph /  7.4km/h 41.1% 0in /  0.0mm
14:14 85.5 °F /  29.7 °C 58.5 °F /  14.7 °C 30.1in /  1018.8hPa SSE 2mph /  3.2km/h 6.2mph /  10km/h 40% 0in /  0.0mm
14:19 85.5 °F /  29.7 °C 58.8 °F /  14.9 °C 30.1in /  1018.8hPa SSE 2.5mph /  4.1km/h 5.9mph /  9.5km/h 40.5% 0in /  0.0mm
14:24 85.8 °F /  29.9 °C 58.1 °F /  14.5 °C 30.1in /  1018.8hPa Sur 3.6mph /  5.8km/h 4.3mph /  6.9km/h 39.3% 0in /  0.0mm
14:29 86.4 °F /  30.2 °C 57.7 °F /  14.3 °C 30.1in /  1018.5hPa ESE 3mph /  4.9km/h 4.6mph /  7.4km/h 38% 0in /  0.0mm
14:34 86.9 °F /  30.5 °C 57.6 °F /  14.2 °C 30.1in /  1018.5hPa ONO 1.8mph /  2.9km/h 5.2mph /  8.4km/h 37.1% 0in /  0.0mm
14:39 87.1 °F /  30.6 °C 56.8 °F /  13.8 °C 30.1in /  1018.5hPa OSO 2mph /  3.2km/h 3.6mph /  5.8km/h 36% 0in /  0.0mm
14:44 87.4 °F /  30.8 °C 57.9 °F /  14.4 °C 30.1in /  1018.3hPa NO 2.4mph /  3.9km/h 4.6mph /  7.4km/h 36.9% 0in /  0.0mm
14:45 87.6 °F /  30.9 °C 58.1 °F /  14.5 °C 30.1in /  1018.3hPa NNO 2.4mph /  3.9km/h 4.3mph /  6.9km/h 37% 0in /  0.0mm
14:54 87.3 °F /  30.7 °C 57.7 °F /  14.3 °C 30.1in /  1018.3hPa North 2.9mph /  4.7km/h 7.4mph /  11.9km/h 36.8% 0in /  0.0mm
14:59 87.1 °F /  30.6 °C 57.2 °F /  14 °C 30.1in /  1018.2hPa NNO 3.2mph /  5.1km/h 5.8mph /  9.3km/h 36.3% 0in /  0.0mm
15:04 87.1 °F /  30.6 °C 57.7 °F /  14.3 °C 30.1in /  1018.2hPa NNO 3.6mph /  5.8km/h 5.2mph /  8.4km/h 37% 0in /  0.0mm
15:09 87.3 °F /  30.7 °C 57.7 °F /  14.3 °C 30.1in /  1018.2hPa ONO 3.2mph /  5.1km/h 4.7mph /  7.6km/h 37% 0in /  0.0mm
15:14 87.6 °F /  30.9 °C 57.4 °F /  14.1 °C 30.1in /  1018.0hPa ESE 2.4mph /  3.9km/h 5.9mph /  9.5km/h 36% 0in /  0.0mm
15:19 88 °F /  31.1 °C 57 °F /  13.9 °C 30.1in /  1018.0hPa ENE 2.8mph /  4.5km/h 8.1mph /  13km/h 35.1% 0in /  0.0mm
15:24 87.6 °F /  30.9 °C 56.7 °F /  13.7 °C 30.1in /  1018.0hPa North 3.6mph /  5.8km/h 6.9mph /  11.1km/h 35% 0in /  0.0mm
15:29 87.8 °F /  31 °C 56.5 °F /  13.6 °C 30.1in /  1017.9hPa ONO 3.4mph /  5.5km/h 5.2mph /  8.4km/h 34.8% 0in /  0.0mm
15:34 88.2 °F /  31.2 °C 56.3 °F /  13.5 °C 30.1in /  1017.9hPa ONO 3.1mph /  5km/h 5.2mph /  8.4km/h 34% 0in /  0.0mm
15:39 88.7 °F /  31.5 °C 56.7 °F /  13.7 °C 30.1in /  1017.9hPa OSO 3mph /  4.9km/h 5.9mph /  9.5km/h 34% 0in /  0.0mm
15:44 89.1 °F /  31.7 °C 56.1 °F /  13.4 °C 30.1in /  1017.8hPa Oeste 2.9mph /  4.7km/h 4.7mph /  7.6km/h 32.9% 0in /  0.0mm
15:49 89.2 °F /  31.8 °C 54.7 °F /  12.6 °C 30.1in /  1017.8hPa ESE 2.9mph /  4.7km/h 5.4mph /  8.7km/h 31.1% 0in /  0.0mm
15:54 89.2 °F /  31.8 °C 54.7 °F /  12.6 °C 30.1in /  1017.8hPa SE 2.9mph /  4.7km/h 6.9mph /  11.1km/h 31.1% 0in /  0.0mm
15:59 89.1 °F /  31.7 °C 55.2 °F /  12.9 °C 30.1in /  1017.6hPa SE 3.3mph /  5.3km/h 9.2mph /  14.8km/h 32% 0in /  0.0mm
16:04 89.1 °F /  31.7 °C 55.2 °F /  12.9 °C 30.1in /  1017.6hPa SSE 4mph /  6.4km/h 4.6mph /  7.4km/h 32% 0in /  0.0mm
16:09 89.4 °F /  31.9 °C 55.2 °F /  12.9 °C 30.1in /  1017.6hPa SSE 3.4mph /  5.5km/h 6.9mph /  11.1km/h 31.5% 0in /  0.0mm
16:14 89.6 °F /  32 °C 56.1 °F /  13.4 °C 30.1in /  1017.5hPa ENE 2.4mph /  3.9km/h 6.9mph /  11.1km/h 32.4% 0in /  0.0mm
16:19 89.8 °F /  32.1 °C 54.3 °F /  12.4 °C 30.1in /  1017.5hPa SSE 2.8mph /  4.5km/h 5.9mph /  9.5km/h 30.3% 0in /  0.0mm
16:24 90 °F /  32.2 °C 53.4 °F /  11.9 °C 30.1in /  1017.5hPa SSE 3.6mph /  5.8km/h 10mph /  16.1km/h 29% 0in /  0.0mm
16:29 89.6 °F /  32 °C 53.1 °F /  11.7 °C 30in /  1017.4hPa SE 4.3mph /  7km/h 11.5mph /  18.5km/h 28.9% 0in /  0.0mm
16:34 89.4 °F /  31.9 °C 53.1 °F /  11.7 °C 30in /  1017.4hPa ESE 5.9mph /  9.5km/h 13mph /  20.9km/h 29% 0in /  0.0mm
16:39 89.2 °F /  31.8 °C 52.9 °F /  11.6 °C 30in /  1017.4hPa ESE 6.2mph /  10km/h 12.7mph /  20.4km/h 29% 0in /  0.0mm
16:44 89.2 °F /  31.8 °C 53.1 °F /  11.7 °C 30in /  1017.2hPa SSE 6.9mph /  11.1km/h 9.2mph /  14.8km/h 29.3% 0in /  0.0mm
16:49 89.4 °F /  31.9 °C 53.1 °F /  11.7 °C 30in /  1017.2hPa SE 6.4mph /  10.3km/h 10.7mph /  17.2km/h 29% 0in /  0.0mm
16:54 89.4 °F /  31.9 °C 52.7 °F /  11.5 °C 30in /  1017.3hPa SE 5.4mph /  8.7km/h 11.2mph /  18km/h 28.7% 0in /  0.0mm
16:59 89.4 °F /  31.9 °C 52.7 °F /  11.5 °C 30in /  1017.3hPa SE 5.8mph /  9.3km/h 11.5mph /  18.5km/h 28.6% 0in /  0.0mm
17:04 89.4 °F /  31.9 °C 52.2 °F /  11.2 °C 30in /  1017.3hPa SE 6.4mph /  10.3km/h 15mph /  24.1km/h 28.1% 0in /  0.0mm
17:09 89.1 °F /  31.7 °C 51.8 °F /  11 °C 30in /  1017.3hPa ESE 7.1mph /  11.5km/h 15mph /  24.1km/h 28% 0in /  0.0mm
17:14 89.1 °F /  31.7 °C 51.8 °F /  11 °C 30in /  1017.2hPa ESE 8.7mph /  14km/h 12.7mph /  20.4km/h 28% 0in /  0.0mm
17:19 89.1 °F /  31.7 °C 51.8 °F /  11 °C 30in /  1017.2hPa SE 8.7mph /  14km/h 14mph /  22.5km/h 28% 0in /  0.0mm
17:24 89.1 °F /  31.7 °C 51.4 °F /  10.8 °C 30in /  1017.2hPa ESE 8.7mph /  14km/h 16.1mph /  25.9km/h 27.7% 0in /  0.0mm
17:29 88.9 °F /  31.6 °C 51.6 °F /  10.9 °C 30in /  1017.2hPa ESE 8.3mph /  13.4km/h 12.5mph /  20.1km/h 28.1% 0in /  0.0mm
17:34 89.1 °F /  31.7 °C 52 °F /  11.1 °C 30in /  1017.2hPa ESE 7.6mph /  12.2km/h 13.8mph /  22.2km/h 28.3% 0in /  0.0mm
17:39 88.7 °F /  31.5 °C 52 °F /  11.1 °C 30in /  1017.2hPa ESE 7.8mph /  12.5km/h 14mph /  22.5km/h 28.5% 0in /  0.0mm
17:44 88.3 °F /  31.3 °C 52.2 °F /  11.2 °C 30in /  1017.2hPa ESE 8.1mph /  13km/h 15mph /  24.1km/h 29.2% 0in /  0.0mm
17:49 88.2 °F /  31.2 °C 52.9 °F /  11.6 °C 30in /  1017.2hPa ESE 8.1mph /  13km/h 12.7mph /  20.4km/h 30.1% 0in /  0.0mm
17:54 88.2 °F /  31.2 °C 52.7 °F /  11.5 °C 30in /  1017.2hPa ESE 8.1mph /  13km/h 14mph /  22.5km/h 30% 0in /  0.0mm
17:59 87.8 °F /  31 °C 52.5 °F /  11.4 °C 30in /  1017.1hPa ESE 8.5mph /  13.7km/h 15.2mph /  24.5km/h 30% 0in /  0.0mm
18:04 87.4 °F /  30.8 °C 52.5 °F /  11.4 °C 30in /  1017.1hPa ESE 9.2mph /  14.8km/h 15mph /  24.1km/h 30.4% 0in /  0.0mm
18:09 87.4 °F /  30.8 °C 51.8 °F /  11 °C 30in /  1017.1hPa ESE 8.9mph /  14.4km/h 16.1mph /  25.9km/h 29.6% 0in /  0.0mm
18:14 87.3 °F /  30.7 °C 51.3 °F /  10.7 °C 30in /  1017.1hPa ESE 8.5mph /  13.7km/h 17.3mph /  27.8km/h 29.1% 0in /  0.0mm
18:19 87.1 °F /  30.6 °C 51.1 °F /  10.6 °C 30in /  1017.1hPa ESE 8.5mph /  13.7km/h 13.8mph /  22.2km/h 29% 0in /  0.0mm
18:24 86.9 °F /  30.5 °C 50 °F /  10 °C 30in /  1017.1hPa ESE 8.5mph /  13.7km/h 14mph /  22.5km/h 28.1% 0in /  0.0mm
18:29 86.9 °F /  30.5 °C 49.8 °F /  9.9 °C 30in /  1017.0hPa ESE 8.2mph /  13.2km/h 13.8mph /  22.2km/h 28% 0in /  0.0mm
18:34 86.7 °F /  30.4 °C 49.8 °F /  9.9 °C 30in /  1017.0hPa SE 7.6mph /  12.2km/h 14mph /  22.5km/h 28% 0in /  0.0mm
18:39 86.5 °F /  30.3 °C 50.4 °F /  10.2 °C 30in /  1017.0hPa SE 7.5mph /  12.1km/h 13mph /  20.9km/h 28.8% 0in /  0.0mm
18:44 86.4 °F /  30.2 °C 50.7 °F /  10.4 °C 30in /  1016.9hPa ESE 7.4mph /  11.9km/h 13.8mph /  22.2km/h 29.4% 0in /  0.0mm
18:49 86.2 °F /  30.1 °C 51.4 °F /  10.8 °C 30in /  1016.9hPa ESE 7.4mph /  11.9km/h 12.7mph /  20.4km/h 30.5% 0in /  0.0mm
18:54 85.8 °F /  29.9 °C 51.8 °F /  11 °C 30in /  1017.1hPa SE 7.4mph /  11.9km/h 10.7mph /  17.2km/h 31% 0in /  0.0mm
18:59 85.6 °F /  29.8 °C 52 °F /  11.1 °C 30in /  1017.1hPa SE 7mph /  11.3km/h 10.7mph /  17.2km/h 31.4% 0in /  0.0mm
19:04 85.5 °F /  29.7 °C 52.2 °F /  11.2 °C 30in /  1017.1hPa SE 6.4mph /  10.3km/h 10.4mph /  16.7km/h 32% 0in /  0.0mm
19:09 85.1 °F /  29.5 °C 52.3 °F /  11.3 °C 30in /  1017.2hPa ESE 6.2mph /  10km/h 10.4mph /  16.7km/h 32.5% 0in /  0.0mm
19:14 84.9 °F /  29.4 °C 52.5 °F /  11.4 °C 30in /  1017.2hPa SE 5.9mph /  9.5km/h 11.8mph /  19km/h 33% 0in /  0.0mm
19:19 84.6 °F /  29.2 °C 52.9 °F /  11.6 °C 30in /  1017.2hPa SE 5.9mph /  9.5km/h 10.7mph /  17.2km/h 33.8% 0in /  0.0mm
19:24 84.4 °F /  29.1 °C 52.9 °F /  11.6 °C 30in /  1017.3hPa SE 5.9mph /  9.5km/h 10.4mph /  16.7km/h 34% 0in /  0.0mm
19:29 84 °F /  28.9 °C 52.2 °F /  11.2 °C 30in /  1017.3hPa SE 6.1mph /  9.8km/h 11.5mph /  18.5km/h 33.4% 0in /  0.0mm
19:34 83.8 °F /  28.8 °C 51.6 °F /  10.9 °C 30in /  1017.3hPa SE 6.4mph /  10.3km/h 10.4mph /  16.7km/h 33% 0in /  0.0mm
19:39 83.7 °F /  28.7 °C 51.1 °F /  10.6 °C 30.1in /  1017.6hPa ESE 6.3mph /  10.2km/h 10.4mph /  16.7km/h 32.6% 0in /  0.0mm
19:44 83.3 °F /  28.5 °C 50.5 °F /  10.3 °C 30.1in /  1017.6hPa ESE 6.2mph /  10km/h 9.2mph /  14.8km/h 32.2% 0in /  0.0mm
19:49 82.9 °F /  28.3 °C 50.2 °F /  10.1 °C 30.1in /  1017.6hPa ESE 5.6mph /  9km/h 6.9mph /  11.1km/h 32% 0in /  0.0mm
19:54 82.8 °F /  28.2 °C 50.4 °F /  10.2 °C 30.1in /  1017.7hPa SE 4.3mph /  6.9km/h 5.9mph /  9.5km/h 32.7% 0in /  0.0mm
19:59 82.6 °F /  28.1 °C 51.3 °F /  10.7 °C 30.1in /  1017.7hPa SSO 4mph /  6.5km/h 4.7mph /  7.6km/h 33.8% 0in /  0.0mm
20:04 82.4 °F /  28 °C 53.4 °F /  11.9 °C 30.1in /  1017.7hPa SO 3.6mph /  5.8km/h 8.1mph /  13km/h 37% 0in /  0.0mm
20:09 82 °F /  27.8 °C 54 °F /  12.2 °C 30.1in /  1017.9hPa OSO 3.7mph /  6km/h 6.9mph /  11.1km/h 38% 0in /  0.0mm
20:14 81.9 °F /  27.7 °C 54.7 °F /  12.6 °C 30.1in /  1017.9hPa SO 4mph /  6.4km/h 6.9mph /  11.1km/h 39.2% 0in /  0.0mm
20:19 81.5 °F /  27.5 °C 55 °F /  12.8 °C 30.1in /  1017.9hPa SSO 3.9mph /  6.2km/h 6.9mph /  11.1km/h 40.3% 0in /  0.0mm
20:24 81.1 °F /  27.3 °C 55.4 °F /  13 °C 30.1in /  1018.1hPa SSO 3.6mph /  5.8km/h 6.2mph /  10km/h 41.1% 0in /  0.0mm
20:29 81 °F /  27.2 °C 55.8 °F /  13.2 °C 30.1in /  1018.1hPa SO 3.6mph /  5.8km/h 6.2mph /  10km/h 42.2% 0in /  0.0mm
20:34 80.8 °F /  27.1 °C 56.1 °F /  13.4 °C 30.1in /  1018.1hPa SO 3.6mph /  5.8km/h 5.8mph /  9.3km/h 43% 0in /  0.0mm
20:39 80.4 °F /  26.9 °C 56.3 °F /  13.5 °C 30.1in /  1018.2hPa SSE 3.2mph /  5.1km/h 4.6mph /  7.4km/h 43.5% 0in /  0.0mm
20:44 80.2 °F /  26.8 °C 56.3 °F /  13.5 °C 30.1in /  1018.2hPa Sur 2.4mph /  3.9km/h 2.9mph /  4.7km/h 44% 0in /  0.0mm
20:49 80.2 °F /  26.8 °C 56.3 °F /  13.5 °C 30.1in /  1018.2hPa Sur 2.1mph /  3.3km/h 2.4mph /  3.9km/h 44% 0in /  0.0mm
20:54 80.1 °F /  26.7 °C 56.5 °F /  13.6 °C 30.1in /  1018.4hPa Sur 1.4mph /  2.3km/h 2.9mph /  4.7km/h 44.6% 0in /  0.0mm
20:59 79.9 °F /  26.6 °C 56.8 °F /  13.8 °C 30.1in /  1018.4hPa OSO 1.6mph /  2.5km/h 4.6mph /  7.4km/h 45.4% 0in /  0.0mm
21:04 79.3 °F /  26.3 °C 57.2 °F /  14 °C 30.1in /  1018.4hPa ONO 1.8mph /  2.9km/h 3.5mph /  5.6km/h 46.5% 0in /  0.0mm
21:09 79.2 °F /  26.2 °C 57.2 °F /  14 °C 30.1in /  1018.4hPa ONO 2mph /  3.2km/h 2.9mph /  4.7km/h 47% 0in /  0.0mm
21:14 79 °F /  26.1 °C 57.6 °F /  14.2 °C 30.1in /  1018.4hPa ONO 2.4mph /  3.9km/h 4.6mph /  7.4km/h 47.9% 0in /  0.0mm
21:19 78.6 °F /  25.9 °C 57.2 °F /  14 °C 30.1in /  1018.4hPa Oeste 2.3mph /  3.7km/h 4.7mph /  7.6km/h 48% 0in /  0.0mm
21:24 78.3 °F /  25.7 °C 57 °F /  13.9 °C 30.1in /  1018.7hPa Oeste 2mph /  3.2km/h 6.2mph /  10km/h 48% 0in /  0.0mm
21:29 77.9 °F /  25.5 °C 57.2 °F /  14 °C 30.1in /  1018.7hPa OSO 2.5mph /  4.1km/h 5.8mph /  9.3km/h 49% 0in /  0.0mm
21:34 77.7 °F /  25.4 °C 57 °F /  13.9 °C 30.1in /  1018.7hPa OSO 3.6mph /  5.8km/h 5.2mph /  8.4km/h 49% 0in /  0.0mm
21:39 77.5 °F /  25.3 °C 57.2 °F /  14 °C 30.1in /  1018.8hPa OSO 3.4mph /  5.5km/h 4.6mph /  7.4km/h 49.6% 0in /  0.0mm
21:44 77.5 °F /  25.3 °C 57.4 °F /  14.1 °C 30.1in /  1018.8hPa OSO 3.1mph /  5km/h 3.6mph /  5.8km/h 50% 0in /  0.0mm
21:49 77.5 °F /  25.3 °C 57.4 °F /  14.1 °C 30.1in /  1018.8hPa OSO 2.7mph /  4.3km/h 2.4mph /  3.9km/h 50% 0in /  0.0mm
21:54 77.4 °F /  25.2 °C 57.4 °F /  14.1 °C 30.1in /  1018.9hPa OSO 1.8mph /  2.9km/h 2.9mph /  4.7km/h 50% 0in /  0.0mm
21:59 77.2 °F /  25.1 °C 57.6 °F /  14.2 °C 30.1in /  1018.9hPa OSO 1.8mph /  2.9km/h 2.4mph /  3.9km/h 50.8% 0in /  0.0mm
22:04 77 °F /  25 °C 57.6 °F /  14.2 °C 30.1in /  1018.9hPa OSO 1.8mph /  2.9km/h   51% 0in /  0.0mm
22:09 76.8 °F /  24.9 °C 57.6 °F /  14.2 °C 30.1in /  1019.1hPa OSO 1.2mph /  1.9km/h 3.5mph /  5.6km/h 51.4% 0in /  0.0mm
22:14 76.6 °F /  24.8 °C 57.7 °F /  14.3 °C 30.1in /  1019.1hPa Calm   3.5mph /  5.6km/h 52% 0in /  0.0mm
22:19 76.5 °F /  24.7 °C 58.1 °F /  14.5 °C 30.1in /  1019.1hPa OSO 0.5mph /  0.8km/h 4.3mph /  6.9km/h 53% 0in /  0.0mm
22:24 76.5 °F /  24.7 °C 59.4 °F /  15.2 °C 30.1in /  1019.2hPa SSO 1.4mph /  2.3km/h 5.9mph /  9.5km/h 55.7% 0in /  0.0mm
22:29 76.3 °F /  24.6 °C 60.1 °F /  15.6 °C 30.1in /  1019.2hPa Sur 2.1mph /  3.4km/h 5.8mph /  9.3km/h 57.5% 0in /  0.0mm
22:34 75.9 °F /  24.4 °C 60.4 °F /  15.8 °C 30.1in /  1019.2hPa Sur 3.6mph /  5.8km/h 5.9mph /  9.5km/h 58.7% 0in /  0.0mm
22:39 75.7 °F /  24.3 °C 60.6 °F /  15.9 °C 30.1in /  1019.3hPa Sur 3.7mph /  6km/h 5.9mph /  9.5km/h 59.7% 0in /  0.0mm
22:44 75.6 °F /  24.2 °C 60.6 °F /  15.9 °C 30.1in /  1019.3hPa SSE 4mph /  6.4km/h 6.2mph /  10km/h 60% 0in /  0.0mm
22:49 75.4 °F /  24.1 °C 60.4 °F /  15.8 °C 30.1in /  1019.3hPa Sur 4mph /  6.4km/h 4.7mph /  7.6km/h 60% 0in /  0.0mm
22:54 75.4 °F /  24.1 °C 60.6 °F /  15.9 °C 30.1in /  1019.3hPa SSO 4mph /  6.4km/h 5.2mph /  8.4km/h 60.3% 0in /  0.0mm
22:59 75.2 °F /  24 °C 61 °F /  16.1 °C 30.1in /  1019.3hPa SO 3.9mph /  6.2km/h 5.8mph /  9.3km/h 61.4% 0in /  0.0mm
23:04 75 °F /  23.9 °C 61.2 °F /  16.2 °C 30.1in /  1019.3hPa SO 3.6mph /  5.8km/h 4.6mph /  7.4km/h 62% 0in /  0.0mm
23:09 75 °F /  23.9 °C 61.2 °F /  16.2 °C 30.1in /  1019.4hPa Sur 3.4mph /  5.4km/h 4.7mph /  7.6km/h 62% 0in /  0.0mm
23:10 75 °F /  23.9 °C 61.2 °F /  16.2 °C 30.1in /  1019.4hPa SE 2.9mph /  4.7km/h 4.6mph /  7.4km/h 62% 0in /  0.0mm
Murcia-Puente Tocinos, España
Compliments of Weather Underground - 2.5 mb

La estación de MeteoMurcia.com, publica sus datos en los siguientes proyectos:

Weather Underground PWS IMURCIAP2 Meteoclimatic www.awekas.at

W3Counter
Web Analytics